Middlesex Center, Vermont
Current Conditions -  °F | °C
As of 5:51 PM on Thursday 27 Nov 2014 (Local Time) from KMPV Reporting Station
Overcast Overcast  
Wind Chill: 18°   Ceiling: 2000
Heat Index: 24°   Visibility: 10mi
Dew Point: 20°   Wind: 5mph
Humidity: 84%   Direction: 340°NNW
Pressure: 30.01"   Gusts: NA
Location:  44.2861°N, 72.6004°W
Report Text: KMPV 272251Z AUTO 34004KT 10SM OVC020 M04/M07 A3001 RMK AO2 SLP179 T10441067
Loading
Personal Weather Stations






























Interactive Weather Map New forecast layout! Learn more

10-Day Weather Forecast

Advertisements
Track Severe Weather on mobile